Terminal Aerodrome Forecast
Issued by NWS Goodland, KS

Home | Current Version | Previous Version | Text Only | Print | Product List | Glossary On
Versions: 1 2 3 4 5 6 7 8 9 10 11 12 13 14 15
000
FTUS43 KGLD 031128
TAFGLD
TAF
KGLD 031128Z 0312/0412 33011KT P6SM BKN120
     FM031400 34020G30KT P6SM BKN005
     FM031800 36015G22KT P6SM BKN015
     FM032100 03012G20KT P6SM BKN035
     FM040100 06011KT P6SM VCSH BKN030
     FM040600 07009KT 5SM -SN BKN015=

USA.gov is the U.S. government's official web portal to all federal, state and local government web resources and services.